sensor_id;sensor_type;location;lat;lon;timestamp;temperature;humidity
2929;DHT22;1474;51.460;7.150;2023-11-18T00:02:24;16.70;61.60
2929;DHT22;1474;51.460;7.150;2023-11-18T00:04:52;16.80;61.70
2929;DHT22;1474;51.460;7.150;2023-11-18T00:07:18;16.70;61.60
2929;DHT22;1474;51.460;7.150;2023-11-18T00:09:44;16.70;61.60
2929;DHT22;1474;51.460;7.150;2023-11-18T00:12:12;16.70;61.60
2929;DHT22;1474;51.460;7.150;2023-11-18T00:14:39;16.70;61.60
2929;DHT22;1474;51.460;7.150;2023-11-18T00:17:08;16.70;61.70
2929;DHT22;1474;51.460;7.150;2023-11-18T00:19:37;16.70;61.60
2929;DHT22;1474;51.460;7.150;2023-11-18T00:22:03;16.70;61.50
2929;DHT22;1474;51.460;7.150;2023-11-18T00:24:29;16.70;61.60
2929;DHT22;1474;51.460;7.150;2023-11-18T00:26:58;16.70;61.60
2929;DHT22;1474;51.460;7.150;2023-11-18T00:29:24;16.80;61.70
2929;DHT22;1474;51.460;7.150;2023-11-18T00:31:51;16.80;61.60
2929;DHT22;1474;51.460;7.150;2023-11-18T00:34:16;16.70;61.60
2929;DHT22;1474;51.460;7.150;2023-11-18T00:36:45;16.70;61.60
2929;DHT22;1474;51.460;7.150;2023-11-18T00:39:28;16.70;61.60
2929;DHT22;1474;51.460;7.150;2023-11-18T00:41:54;16.70;61.60
2929;DHT22;1474;51.460;7.150;2023-11-18T00:44:22;16.70;61.60
2929;DHT22;1474;51.460;7.150;2023-11-18T00:46:50;16.70;61.60
2929;DHT22;1474;51.460;7.150;2023-11-18T00:49:16;16.70;61.60
2929;DHT22;1474;51.460;7.150;2023-11-18T00:51:42;16.70;61.60
2929;DHT22;1474;51.460;7.150;2023-11-18T00:54:08;16.70;61.60
2929;DHT22;1474;51.460;7.150;2023-11-18T00:56:40;16.70;61.50
2929;DHT22;1474;51.460;7.150;2023-11-18T00:59:06;16.80;61.60
2929;DHT22;1474;51.460;7.150;2023-11-18T01:01:32;16.70;61.60
2929;DHT22;1474;51.460;7.150;2023-11-18T01:03:58;16.80;61.60
2929;DHT22;1474;51.460;7.150;2023-11-18T01:06:32;16.70;61.50
2929;DHT22;1474;51.460;7.150;2023-11-18T01:09:00;16.70;61.60
2929;DHT22;1474;51.460;7.150;2023-11-18T01:11:32;16.70;61.50
2929;DHT22;1474;51.460;7.150;2023-11-18T01:14:02;16.70;61.60
2929;DHT22;1474;51.460;7.150;2023-11-18T01:16:28;16.70;61.50
2929;DHT22;1474;51.460;7.150;2023-11-18T01:18:54;16.70;61.60
2929;DHT22;1474;51.460;7.150;2023-11-18T01:21:26;16.70;61.60
2929;DHT22;1474;51.460;7.150;2023-11-18T01:23:53;16.70;61.50
2929;DHT22;1474;51.460;7.150;2023-11-18T01:26:19;16.70;61.50
2929;DHT22;1474;51.460;7.150;2023-11-18T01:28:45;16.70;61.50
2929;DHT22;1474;51.460;7.150;2023-11-18T01:31:12;16.70;61.50
2929;DHT22;1474;51.460;7.150;2023-11-18T01:33:39;16.70;61.50
2929;DHT22;1474;51.460;7.150;2023-11-18T01:36:07;16.70;61.60
2929;DHT22;1474;51.460;7.150;2023-11-18T01:38:37;16.70;61.60
2929;DHT22;1474;51.460;7.150;2023-11-18T01:41:04;16.70;61.60
2929;DHT22;1474;51.460;7.150;2023-11-18T01:43:37;16.70;61.50
2929;DHT22;1474;51.460;7.150;2023-11-18T01:46:08;16.70;61.60
2929;DHT22;1474;51.460;7.150;2023-11-18T01:48:40;16.70;61.60
2929;DHT22;1474;51.460;7.150;2023-11-18T01:51:13;16.70;61.60
2929;DHT22;1474;51.460;7.150;2023-11-18T01:53:40;16.70;61.60
2929;DHT22;1474;51.460;7.150;2023-11-18T01:56:09;16.70;61.50
2929;DHT22;1474;51.460;7.150;2023-11-18T01:58:38;16.70;61.60
2929;DHT22;1474;51.460;7.150;2023-11-18T02:01:09;16.70;61.60
2929;DHT22;1474;51.460;7.150;2023-11-18T02:03:38;16.70;61.50
2929;DHT22;1474;51.460;7.150;2023-11-18T02:06:06;16.70;61.50
2929;DHT22;1474;51.460;7.150;2023-11-18T02:08:36;16.70;61.60
2929;DHT22;1474;51.460;7.150;2023-11-18T02:11:20;16.70;61.50
2929;DHT22;1474;51.460;7.150;2023-11-18T02:14:01;16.70;61.60
2929;DHT22;1474;51.460;7.150;2023-11-18T02:16:28;16.70;61.60
2929;DHT22;1474;51.460;7.150;2023-11-18T02:18:55;16.70;61.60
2929;DHT22;1474;51.460;7.150;2023-11-18T02:21:25;16.70;61.60
2929;DHT22;1474;51.460;7.150;2023-11-18T02:23:52;16.70;61.60
2929;DHT22;1474;51.460;7.150;2023-11-18T02:26:24;16.70;61.60
2929;DHT22;1474;51.460;7.150;2023-11-18T02:28:53;16.70;62.20
2929;DHT22;1474;51.460;7.150;2023-11-18T02:31:31;16.70;61.60
2929;DHT22;1474;51.460;7.150;2023-11-18T02:34:12;16.70;61.60
2929;DHT22;1474;51.460;7.150;2023-11-18T02:36:46;16.70;61.60
2929;DHT22;1474;51.460;7.150;2023-11-18T02:39:37;16.60;61.60
2929;DHT22;1474;51.460;7.150;2023-11-18T02:42:08;16.70;61.70
2929;DHT22;1474;51.460;7.150;2023-11-18T02:44:40;16.60;61.60
2929;DHT22;1474;51.460;7.150;2023-11-18T02:47:07;16.60;61.60
2929;DHT22;1474;51.460;7.150;2023-11-18T02:49:39;16.70;61.60
2929;DHT22;1474;51.460;7.150;2023-11-18T02:52:05;16.60;61.50
2929;DHT22;1474;51.460;7.150;2023-11-18T02:54:34;16.60;61.60
2929;DHT22;1474;51.460;7.150;2023-11-18T02:57:00;16.60;61.50
2929;DHT22;1474;51.460;7.150;2023-11-18T02:59:26;16.70;61.60
2929;DHT22;1474;51.460;7.150;2023-11-18T03:01:55;16.60;61.50
2929;DHT22;1474;51.460;7.150;2023-11-18T03:04:21;16.70;61.50
2929;DHT22;1474;51.460;7.150;2023-11-18T03:06:49;16.70;61.50
2929;DHT22;1474;51.460;7.150;2023-11-18T03:09:15;16.60;61.50
2929;DHT22;1474;51.460;7.150;2023-11-18T03:11:41;16.70;61.50
2929;DHT22;1474;51.460;7.150;2023-11-18T03:14:12;16.70;61.60
2929;DHT22;1474;51.460;7.150;2023-11-18T03:16:41;16.60;61.50
2929;DHT22;1474;51.460;7.150;2023-11-18T03:19:07;16.70;61.50
2929;DHT22;1474;51.460;7.150;2023-11-18T03:21:36;16.60;61.40
2929;DHT22;1474;51.460;7.150;2023-11-18T03:24:06;16.70;61.50
2929;DHT22;1474;51.460;7.150;2023-11-18T03:26:32;16.70;61.60
2929;DHT22;1474;51.460;7.150;2023-11-18T03:28:58;16.70;61.50
2929;DHT22;1474;51.460;7.150;2023-11-18T03:31:24;16.60;61.50
2929;DHT22;1474;51.460;7.150;2023-11-18T03:33:50;16.70;61.60
2929;DHT22;1474;51.460;7.150;2023-11-18T03:36:15;16.60;61.50
2929;DHT22;1474;51.460;7.150;2023-11-18T03:38:43;16.70;61.60
2929;DHT22;1474;51.460;7.150;2023-11-18T03:41:12;16.60;61.50
2929;DHT22;1474;51.460;7.150;2023-11-18T03:43:38;16.60;61.50
2929;DHT22;1474;51.460;7.150;2023-11-18T03:46:06;16.60;61.50
2929;DHT22;1474;51.460;7.150;2023-11-18T03:48:33;16.70;61.50
2929;DHT22;1474;51.460;7.150;2023-11-18T03:50:59;16.60;61.50
2929;DHT22;1474;51.460;7.150;2023-11-18T03:53:29;16.60;61.50
2929;DHT22;1474;51.460;7.150;2023-11-18T03:55:57;16.70;61.60
2929;DHT22;1474;51.460;7.150;2023-11-18T03:58:26;16.60;61.50
2929;DHT22;1474;51.460;7.150;2023-11-18T04:00:58;16.70;61.60
2929;DHT22;1474;51.460;7.150;2023-11-18T04:03:29;16.60;61.50
2929;DHT22;1474;51.460;7.150;2023-11-18T04:05:57;16.70;61.60
2929;DHT22;1474;51.460;7.150;2023-11-18T04:08:23;16.60;61.50
2929;DHT22;1474;51.460;7.150;2023-11-18T04:10:52;16.70;61.60
2929;DHT22;1474;51.460;7.150;2023-11-18T04:13:18;16.60;61.50
2929;DHT22;1474;51.460;7.150;2023-11-18T04:15:44;16.70;61.60
2929;DHT22;1474;51.460;7.150;2023-11-18T04:18:10;16.60;61.60
2929;DHT22;1474;51.460;7.150;2023-11-18T04:20:36;16.60;61.60
2929;DHT22;1474;51.460;7.150;2023-11-18T04:23:02;16.70;61.60
2929;DHT22;1474;51.460;7.150;2023-11-18T04:25:28;16.60;61.60
2929;DHT22;1474;51.460;7.150;2023-11-18T04:27:56;16.60;61.60
2929;DHT22;1474;51.460;7.150;2023-11-18T04:30:24;16.70;61.60
2929;DHT22;1474;51.460;7.150;2023-11-18T04:32:52;16.70;61.70
2929;DHT22;1474;51.460;7.150;2023-11-18T04:35:18;16.60;61.60
2929;DHT22;1474;51.460;7.150;2023-11-18T04:37:44;16.60;61.60
2929;DHT22;1474;51.460;7.150;2023-11-18T04:40:21;16.60;61.70
2929;DHT22;1474;51.460;7.150;2023-11-18T04:42:48;16.60;61.60
2929;DHT22;1474;51.460;7.150;2023-11-18T04:45:17;16.60;61.50
2929;DHT22;1474;51.460;7.150;2023-11-18T04:47:46;16.60;61.60
2929;DHT22;1474;51.460;7.150;2023-11-18T04:50:12;16.60;61.60
2929;DHT22;1474;51.460;7.150;2023-11-18T04:52:41;16.60;61.60
2929;DHT22;1474;51.460;7.150;2023-11-18T04:55:07;16.60;61.60
2929;DHT22;1474;51.460;7.150;2023-11-18T04:57:39;16.60;61.60
2929;DHT22;1474;51.460;7.150;2023-11-18T05:00:05;16.60;61.60
2929;DHT22;1474;51.460;7.150;2023-11-18T05:02:39;16.60;61.60
2929;DHT22;1474;51.460;7.150;2023-11-18T05:05:08;16.60;61.60
2929;DHT22;1474;51.460;7.150;2023-11-18T05:07:35;16.60;61.60
2929;DHT22;1474;51.460;7.150;2023-11-18T05:10:02;16.60;61.60
2929;DHT22;1474;51.460;7.150;2023-11-18T05:12:34;16.60;61.60
2929;DHT22;1474;51.460;7.150;2023-11-18T05:15:06;16.60;61.50
2929;DHT22;1474;51.460;7.150;2023-11-18T05:17:39;16.70;61.60
2929;DHT22;1474;51.460;7.150;2023-11-18T05:20:05;16.60;61.50
2929;DHT22;1474;51.460;7.150;2023-11-18T05:22:41;16.60;61.50
2929;DHT22;1474;51.460;7.150;2023-11-18T05:25:11;16.60;61.50
2929;DHT22;1474;51.460;7.150;2023-11-18T05:27:40;16.60;61.50
2929;DHT22;1474;51.460;7.150;2023-11-18T05:30:10;16.60;61.50
2929;DHT22;1474;51.460;7.150;2023-11-18T05:32:39;16.60;61.50
2929;DHT22;1474;51.460;7.150;2023-11-18T05:35:06;16.60;61.50
2929;DHT22;1474;51.460;7.150;2023-11-18T05:37:37;16.60;61.50
2929;DHT22;1474;51.460;7.150;2023-11-18T05:40:04;16.60;61.50
2929;DHT22;1474;51.460;7.150;2023-11-18T05:42:35;16.60;61.50
2929;DHT22;1474;51.460;7.150;2023-11-18T05:45:07;16.60;61.50
2929;DHT22;1474;51.460;7.150;2023-11-18T05:47:35;16.60;61.50
2929;DHT22;1474;51.460;7.150;2023-11-18T05:50:04;16.60;61.50
2929;DHT22;1474;51.460;7.150;2023-11-18T05:52:31;16.60;62.10
2929;DHT22;1474;51.460;7.150;2023-11-18T05:54:58;16.60;61.50
2929;DHT22;1474;51.460;7.150;2023-11-18T05:57:29;16.60;61.50
2929;DHT22;1474;51.460;7.150;2023-11-18T06:00:06;16.60;61.50
2929;DHT22;1474;51.460;7.150;2023-11-18T06:02:34;16.60;61.60
2929;DHT22;1474;51.460;7.150;2023-11-18T06:05:01;16.60;61.60
2929;DHT22;1474;51.460;7.150;2023-11-18T06:07:30;16.60;61.60
2929;DHT22;1474;51.460;7.150;2023-11-18T06:09:56;16.60;61.60
2929;DHT22;1474;51.460;7.150;2023-11-18T06:12:23;16.60;61.60
2929;DHT22;1474;51.460;7.150;2023-11-18T06:14:51;16.60;61.60
2929;DHT22;1474;51.460;7.150;2023-11-18T06:17:17;16.60;61.60
2929;DHT22;1474;51.460;7.150;2023-11-18T06:19:47;16.60;61.60
2929;DHT22;1474;51.460;7.150;2023-11-18T06:22:20;16.60;61.60
2929;DHT22;1474;51.460;7.150;2023-11-18T06:24:46;16.60;61.60
2929;DHT22;1474;51.460;7.150;2023-11-18T06:27:11;16.60;61.60
2929;DHT22;1474;51.460;7.150;2023-11-18T06:29:37;16.60;61.60
2929;DHT22;1474;51.460;7.150;2023-11-18T06:32:03;16.60;61.60
2929;DHT22;1474;51.460;7.150;2023-11-18T06:34:31;16.60;61.60
2929;DHT22;1474;51.460;7.150;2023-11-18T06:36:58;16.60;61.60
2929;DHT22;1474;51.460;7.150;2023-11-18T06:39:26;16.60;61.60
2929;DHT22;1474;51.460;7.150;2023-11-18T06:41:57;16.60;61.60
2929;DHT22;1474;51.460;7.150;2023-11-18T06:44:29;16.60;61.60
2929;DHT22;1474;51.460;7.150;2023-11-18T06:46:54;16.60;61.60
2929;DHT22;1474;51.460;7.150;2023-11-18T06:49:20;16.60;61.60
2929;DHT22;1474;51.460;7.150;2023-11-18T06:51:46;16.60;61.60
2929;DHT22;1474;51.460;7.150;2023-11-18T06:54:12;16.60;61.60
2929;DHT22;1474;51.460;7.150;2023-11-18T06:56:40;16.60;61.60
2929;DHT22;1474;51.460;7.150;2023-11-18T06:59:11;16.60;61.60
2929;DHT22;1474;51.460;7.150;2023-11-18T07:01:44;16.60;61.60
2929;DHT22;1474;51.460;7.150;2023-11-18T07:04:10;16.60;61.50
2929;DHT22;1474;51.460;7.150;2023-11-18T07:06:37;16.60;61.50
2929;DHT22;1474;51.460;7.150;2023-11-18T07:09:04;16.60;61.60
2929;DHT22;1474;51.460;7.150;2023-11-18T07:11:43;16.60;61.60
2929;DHT22;1474;51.460;7.150;2023-11-18T07:14:10;16.60;61.60
2929;DHT22;1474;51.460;7.150;2023-11-18T07:16:38;16.60;61.60
2929;DHT22;1474;51.460;7.150;2023-11-18T07:19:05;16.60;61.60
2929;DHT22;1474;51.460;7.150;2023-11-18T07:21:31;16.60;61.60
2929;DHT22;1474;51.460;7.150;2023-11-18T07:23:59;16.60;62.10
2929;DHT22;1474;51.460;7.150;2023-11-18T07:26:28;16.60;61.60
2929;DHT22;1474;51.460;7.150;2023-11-18T07:28:56;16.60;61.60
2929;DHT22;1474;51.460;7.150;2023-11-18T07:31:22;16.60;61.50
2929;DHT22;1474;51.460;7.150;2023-11-18T07:33:48;16.60;61.60
2929;DHT22;1474;51.460;7.150;2023-11-18T07:36:17;16.60;61.60
2929;DHT22;1474;51.460;7.150;2023-11-18T07:38:47;16.60;61.50
2929;DHT22;1474;51.460;7.150;2023-11-18T07:41:15;16.60;61.60
2929;DHT22;1474;51.460;7.150;2023-11-18T07:43:52;16.60;61.60
2929;DHT22;1474;51.460;7.150;2023-11-18T07:46:20;16.60;61.50
2929;DHT22;1474;51.460;7.150;2023-11-18T07:49:02;16.60;61.50
2929;DHT22;1474;51.460;7.150;2023-11-18T07:51:39;16.60;61.50
2929;DHT22;1474;51.460;7.150;2023-11-18T07:54:13;16.60;61.50
2929;DHT22;1474;51.460;7.150;2023-11-18T07:56:40;16.60;61.50
2929;DHT22;1474;51.460;7.150;2023-11-18T07:59:11;16.60;61.60
2929;DHT22;1474;51.460;7.150;2023-11-18T08:01:57;16.60;61.50
2929;DHT22;1474;51.460;7.150;2023-11-18T08:04:23;16.60;61.60
2929;DHT22;1474;51.460;7.150;2023-11-18T08:06:54;16.60;61.50
2929;DHT22;1474;51.460;7.150;2023-11-18T08:09:23;16.60;61.50
2929;DHT22;1474;51.460;7.150;2023-11-18T08:11:51;16.60;61.80
2929;DHT22;1474;51.460;7.150;2023-11-18T08:14:18;16.60;61.90
2929;DHT22;1474;51.460;7.150;2023-11-18T08:16:47;16.60;62.00
2929;DHT22;1474;51.460;7.150;2023-11-18T08:19:19;16.70;62.10
2929;DHT22;1474;51.460;7.150;2023-11-18T08:22:02;16.70;62.20
2929;DHT22;1474;51.460;7.150;2023-11-18T08:24:29;16.70;62.30
2929;DHT22;1474;51.460;7.150;2023-11-18T08:26:55;16.70;62.20
2929;DHT22;1474;51.460;7.150;2023-11-18T08:29:21;16.70;62.30
2929;DHT22;1474;51.460;7.150;2023-11-18T08:31:47;16.70;62.30
2929;DHT22;1474;51.460;7.150;2023-11-18T08:34:13;16.70;62.30
2929;DHT22;1474;51.460;7.150;2023-11-18T08:36:39;16.70;62.30
2929;DHT22;1474;51.460;7.150;2023-11-18T08:39:05;16.70;62.30
2929;DHT22;1474;51.460;7.150;2023-11-18T08:41:30;16.70;62.30
2929;DHT22;1474;51.460;7.150;2023-11-18T08:43:56;16.70;62.30
2929;DHT22;1474;51.460;7.150;2023-11-18T08:46:22;16.70;62.30
2929;DHT22;1474;51.460;7.150;2023-11-18T08:48:48;16.80;62.30
2929;DHT22;1474;51.460;7.150;2023-11-18T08:51:14;16.70;62.80
2929;DHT22;1474;51.460;7.150;2023-11-18T08:53:41;16.70;62.30
2929;DHT22;1474;51.460;7.150;2023-11-18T08:56:11;16.80;62.30
2929;DHT22;1474;51.460;7.150;2023-11-18T08:58:44;16.70;62.30
2929;DHT22;1474;51.460;7.150;2023-11-18T09:01:14;16.70;62.30
2929;DHT22;1474;51.460;7.150;2023-11-18T09:03:41;16.80;62.80
2929;DHT22;1474;51.460;7.150;2023-11-18T09:06:27;16.70;62.30
2929;DHT22;1474;51.460;7.150;2023-11-18T09:08:54;16.80;62.30
2929;DHT22;1474;51.460;7.150;2023-11-18T09:11:24;16.80;62.30
2929;DHT22;1474;51.460;7.150;2023-11-18T09:13:57;16.80;62.30
2929;DHT22;1474;51.460;7.150;2023-11-18T09:16:26;16.80;62.30
2929;DHT22;1474;51.460;7.150;2023-11-18T09:18:55;16.80;62.30
2929;DHT22;1474;51.460;7.150;2023-11-18T09:21:23;16.80;62.30
2929;DHT22;1474;51.460;7.150;2023-11-18T09:23:51;16.80;62.30
2929;DHT22;1474;51.460;7.150;2023-11-18T09:26:17;16.80;62.30
2929;DHT22;1474;51.460;7.150;2023-11-18T09:28:43;16.80;62.30
2929;DHT22;1474;51.460;7.150;2023-11-18T09:31:10;16.80;62.30
2929;DHT22;1474;51.460;7.150;2023-11-18T09:33:46;16.80;62.30
2929;DHT22;1474;51.460;7.150;2023-11-18T09:36:18;16.80;62.30
2929;DHT22;1474;51.460;7.150;2023-11-18T09:38:48;16.80;62.90
2929;DHT22;1474;51.460;7.150;2023-11-18T09:41:15;16.80;62.30
2929;DHT22;1474;51.460;7.150;2023-11-18T09:43:43;16.80;62.30
2929;DHT22;1474;51.460;7.150;2023-11-18T09:46:14;16.80;62.30
2929;DHT22;1474;51.460;7.150;2023-11-18T09:48:53;16.80;62.30
2929;DHT22;1474;51.460;7.150;2023-11-18T09:51:41;16.80;62.20
2929;DHT22;1474;51.460;7.150;2023-11-18T09:54:36;16.80;62.00
2929;DHT22;1474;51.460;7.150;2023-11-18T09:57:23;16.80;61.80
2929;DHT22;1474;51.460;7.150;2023-11-18T10:00:04;16.80;61.60
2929;DHT22;1474;51.460;7.150;2023-11-18T10:02:50;16.80;61.60
2929;DHT22;1474;51.460;7.150;2023-11-18T10:05:17;16.80;61.50
2929;DHT22;1474;51.460;7.150;2023-11-18T10:07:47;16.80;61.60
2929;DHT22;1474;51.460;7.150;2023-11-18T10:10:13;16.80;61.50
2929;DHT22;1474;51.460;7.150;2023-11-18T10:12:47;16.80;61.60
2929;DHT22;1474;51.460;7.150;2023-11-18T10:15:19;16.80;61.60
2929;DHT22;1474;51.460;7.150;2023-11-18T10:17:49;16.80;61.60
2929;DHT22;1474;51.460;7.150;2023-11-18T10:20:43;16.80;61.70
2929;DHT22;1474;51.460;7.150;2023-11-18T10:23:17;16.80;61.70
2929;DHT22;1474;51.460;7.150;2023-11-18T10:25:50;16.80;61.70
2929;DHT22;1474;51.460;7.150;2023-11-18T10:28:28;16.80;61.60
2929;DHT22;1474;51.460;7.150;2023-11-18T10:31:01;16.80;61.60
2929;DHT22;1474;51.460;7.150;2023-11-18T10:33:32;16.80;61.70
2929;DHT22;1474;51.460;7.150;2023-11-18T10:36:03;16.80;61.70
2929;DHT22;1474;51.460;7.150;2023-11-18T10:38:39;16.80;61.70
2929;DHT22;1474;51.460;7.150;2023-11-18T10:41:09;16.90;61.70
2929;DHT22;1474;51.460;7.150;2023-11-18T10:43:35;16.80;61.80
2929;DHT22;1474;51.460;7.150;2023-11-18T10:46:08;16.80;61.70
2929;DHT22;1474;51.460;7.150;2023-11-18T10:48:48;16.80;61.70
2929;DHT22;1474;51.460;7.150;2023-11-18T10:51:18;16.80;61.80
2929;DHT22;1474;51.460;7.150;2023-11-18T10:53:49;16.80;61.80
2929;DHT22;1474;51.460;7.150;2023-11-18T10:56:29;16.80;61.80
2929;DHT22;1474;51.460;7.150;2023-11-18T10:59:04;16.80;61.80
2929;DHT22;1474;51.460;7.150;2023-11-18T11:01:51;16.80;61.90
2929;DHT22;1474;51.460;7.150;2023-11-18T11:13:05;16.60;62.00
2929;DHT22;1474;51.460;7.150;2023-11-18T11:15:53;16.60;62.70
2929;DHT22;1474;51.460;7.150;2023-11-18T11:18:45;16.60;62.50
2929;DHT22;1474;51.460;7.150;2023-11-18T11:21:46;16.60;62.40
2929;DHT22;1474;51.460;7.150;2023-11-18T11:24:54;16.60;62.30
2929;DHT22;1474;51.460;7.150;2023-11-18T11:27:53;16.60;62.30
2929;DHT22;1474;51.460;7.150;2023-11-18T11:30:50;16.70;62.30
2929;DHT22;1474;51.460;7.150;2023-11-18T11:33:49;16.70;62.20
2929;DHT22;1474;51.460;7.150;2023-11-18T11:36:50;16.70;62.10
2929;DHT22;1474;51.460;7.150;2023-11-18T11:39:37;16.70;62.20
2929;DHT22;1474;51.460;7.150;2023-11-18T11:42:04;16.70;62.10
2929;DHT22;1474;51.460;7.150;2023-11-18T11:44:35;16.70;62.10
2929;DHT22;1474;51.460;7.150;2023-11-18T11:47:07;16.70;62.00
2929;DHT22;1474;51.460;7.150;2023-11-18T11:49:41;16.70;62.00
2929;DHT22;1474;51.460;7.150;2023-11-18T11:52:30;16.70;62.10
2929;DHT22;1474;51.460;7.150;2023-11-18T11:57:55;16.70;62.00
2929;DHT22;1474;51.460;7.150;2023-11-18T12:00:24;16.80;62.10
2929;DHT22;1474;51.460;7.150;2023-11-18T12:02:52;16.80;62.00
2929;DHT22;1474;51.460;7.150;2023-11-18T12:05:25;16.70;62.00
2929;DHT22;1474;51.460;7.150;2023-11-18T12:07:55;16.80;62.00
2929;DHT22;1474;51.460;7.150;2023-11-18T12:10:25;16.80;62.10
2929;DHT22;1474;51.460;7.150;2023-11-18T12:13:07;16.70;62.00
2929;DHT22;1474;51.460;7.150;2023-11-18T12:15:54;16.80;62.00
2929;DHT22;1474;51.460;7.150;2023-11-18T12:18:24;16.70;62.00
2929;DHT22;1474;51.460;7.150;2023-11-18T12:20:50;16.70;62.00
2929;DHT22;1474;51.460;7.150;2023-11-18T12:23:21;16.80;62.10
2929;DHT22;1474;51.460;7.150;2023-11-18T12:25:54;16.70;62.00
2929;DHT22;1474;51.460;7.150;2023-11-18T12:30:53;16.70;62.00
2929;DHT22;1474;51.460;7.150;2023-11-18T12:33:26;16.70;62.00
2929;DHT22;1474;51.460;7.150;2023-11-18T12:39:53;16.70;62.10
2929;DHT22;1474;51.460;7.150;2023-11-18T12:42:57;16.70;62.00
2929;DHT22;1474;51.460;7.150;2023-11-18T12:45:44;16.70;62.10
2929;DHT22;1474;51.460;7.150;2023-11-18T12:48:20;16.80;62.20
2929;DHT22;1474;51.460;7.150;2023-11-18T12:50:53;16.70;62.30
2929;DHT22;1474;51.460;7.150;2023-11-18T12:53:21;16.70;62.30
2929;DHT22;1474;51.460;7.150;2023-11-18T12:55:49;16.70;62.20
2929;DHT22;1474;51.460;7.150;2023-11-18T12:58:17;16.70;62.30
2929;DHT22;1474;51.460;7.150;2023-11-18T13:00:43;16.70;62.30
2929;DHT22;1474;51.460;7.150;2023-11-18T13:03:10;16.70;62.30
2929;DHT22;1474;51.460;7.150;2023-11-18T13:05:37;16.70;62.20
2929;DHT22;1474;51.460;7.150;2023-11-18T13:08:04;16.70;62.30
2929;DHT22;1474;51.460;7.150;2023-11-18T13:10:30;16.70;62.30
2929;DHT22;1474;51.460;7.150;2023-11-18T13:12:56;16.70;62.30
2929;DHT22;1474;51.460;7.150;2023-11-18T13:15:24;16.80;62.30
2929;DHT22;1474;51.460;7.150;2023-11-18T13:18:04;16.70;62.30
2929;DHT22;1474;51.460;7.150;2023-11-18T13:20:34;16.80;62.30
2929;DHT22;1474;51.460;7.150;2023-11-18T13:23:03;16.80;62.30
2929;DHT22;1474;51.460;7.150;2023-11-18T13:25:36;16.70;62.30
2929;DHT22;1474;51.460;7.150;2023-11-18T13:28:05;16.80;62.30
2929;DHT22;1474;51.460;7.150;2023-11-18T13:30:35;16.80;62.30
2929;DHT22;1474;51.460;7.150;2023-11-18T13:33:01;16.70;62.40
2929;DHT22;1474;51.460;7.150;2023-11-18T13:35:27;16.70;62.40
2929;DHT22;1474;51.460;7.150;2023-11-18T13:37:54;16.70;62.30
2929;DHT22;1474;51.460;7.150;2023-11-18T13:40:19;16.80;62.30
2929;DHT22;1474;51.460;7.150;2023-11-18T13:42:46;16.70;62.30
2929;DHT22;1474;51.460;7.150;2023-11-18T13:45:13;16.70;62.30
2929;DHT22;1474;51.460;7.150;2023-11-18T13:47:50;16.70;62.30
2929;DHT22;1474;51.460;7.150;2023-11-18T13:50:17;16.80;62.30
2929;DHT22;1474;51.460;7.150;2023-11-18T13:52:46;16.80;62.50
2929;DHT22;1474;51.460;7.150;2023-11-18T13:55:15;16.80;62.60
2929;DHT22;1474;51.460;7.150;2023-11-18T13:57:57;16.80;62.60
2929;DHT22;1474;51.460;7.150;2023-11-18T14:00:25;16.80;62.60
2929;DHT22;1474;51.460;7.150;2023-11-18T14:02:55;16.80;62.60
2929;DHT22;1474;51.460;7.150;2023-11-18T14:05:22;16.70;62.50
2929;DHT22;1474;51.460;7.150;2023-11-18T14:07:51;16.70;62.50
2929;DHT22;1474;51.460;7.150;2023-11-18T14:10:21;16.70;62.50
2929;DHT22;1474;51.460;7.150;2023-11-18T14:13:06;16.80;62.60
2929;DHT22;1474;51.460;7.150;2023-11-18T14:15:37;16.70;62.50
2929;DHT22;1474;51.460;7.150;2023-11-18T14:18:04;16.70;62.50
2929;DHT22;1474;51.460;7.150;2023-11-18T14:20:33;16.70;62.50
2929;DHT22;1474;51.460;7.150;2023-11-18T14:23:01;16.70;62.50
2929;DHT22;1474;51.460;7.150;2023-11-18T14:25:29;16.70;62.50
2929;DHT22;1474;51.460;7.150;2023-11-18T14:27:56;16.70;62.50
2929;DHT22;1474;51.460;7.150;2023-11-18T14:30:23;16.70;62.50
2929;DHT22;1474;51.460;7.150;2023-11-18T14:32:51;16.70;62.60
2929;DHT22;1474;51.460;7.150;2023-11-18T14:35:18;16.70;62.50
2929;DHT22;1474;51.460;7.150;2023-11-18T14:37:44;16.70;62.50
2929;DHT22;1474;51.460;7.150;2023-11-18T14:40:14;16.70;62.50
2929;DHT22;1474;51.460;7.150;2023-11-18T14:42:42;16.70;62.50
2929;DHT22;1474;51.460;7.150;2023-11-18T14:45:09;16.70;62.50
2929;DHT22;1474;51.460;7.150;2023-11-18T14:47:38;16.70;63.10
2929;DHT22;1474;51.460;7.150;2023-11-18T14:50:05;16.70;62.50
2929;DHT22;1474;51.460;7.150;2023-11-18T14:52:41;16.70;62.50
2929;DHT22;1474;51.460;7.150;2023-11-18T14:55:08;16.70;62.50
2929;DHT22;1474;51.460;7.150;2023-11-18T14:57:38;16.70;62.50
2929;DHT22;1474;51.460;7.150;2023-11-18T15:00:10;16.70;62.50
2929;DHT22;1474;51.460;7.150;2023-11-18T15:02:53;16.70;63.10
2929;DHT22;1474;51.460;7.150;2023-11-18T15:05:23;16.70;62.50
2929;DHT22;1474;51.460;7.150;2023-11-18T15:07:50;16.70;62.50
2929;DHT22;1474;51.460;7.150;2023-11-18T15:10:19;16.70;62.50
2929;DHT22;1474;51.460;7.150;2023-11-18T15:12:54;16.70;62.50
2929;DHT22;1474;51.460;7.150;2023-11-18T15:15:27;16.70;62.50
2929;DHT22;1474;51.460;7.150;2023-11-18T15:17:58;16.70;62.50
2929;DHT22;1474;51.460;7.150;2023-11-18T15:20:25;16.70;63.10
2929;DHT22;1474;51.460;7.150;2023-11-18T15:22:51;16.70;62.50
2929;DHT22;1474;51.460;7.150;2023-11-18T15:25:17;16.60;62.40
2929;DHT22;1474;51.460;7.150;2023-11-18T15:27:43;16.70;62.50
2929;DHT22;1474;51.460;7.150;2023-11-18T15:30:14;16.60;62.40
2929;DHT22;1474;51.460;7.150;2023-11-18T15:32:46;16.60;62.40
2929;DHT22;1474;51.460;7.150;2023-11-18T15:35:13;16.70;62.50
2929;DHT22;1474;51.460;7.150;2023-11-18T15:37:43;16.60;62.40
2929;DHT22;1474;51.460;7.150;2023-11-18T15:40:12;16.60;62.40
2929;DHT22;1474;51.460;7.150;2023-11-18T15:42:41;16.60;62.40
2929;DHT22;1474;51.460;7.150;2023-11-18T15:45:11;16.70;62.50
2929;DHT22;1474;51.460;7.150;2023-11-18T15:47:39;16.60;62.40
2929;DHT22;1474;51.460;7.150;2023-11-18T15:50:08;16.60;62.50
2929;DHT22;1474;51.460;7.150;2023-11-18T15:52:38;16.60;62.50
2929;DHT22;1474;51.460;7.150;2023-11-18T15:55:05;16.70;62.50
2929;DHT22;1474;51.460;7.150;2023-11-18T15:57:41;16.60;62.50
2929;DHT22;1474;51.460;7.150;2023-11-18T16:00:09;16.60;62.50
2929;DHT22;1474;51.460;7.150;2023-11-18T16:02:47;16.60;62.50
2929;DHT22;1474;51.460;7.150;2023-11-18T16:05:20;16.60;62.40
2929;DHT22;1474;51.460;7.150;2023-11-18T16:07:48;16.60;62.50
2929;DHT22;1474;51.460;7.150;2023-11-18T16:10:20;16.60;62.40
2929;DHT22;1474;51.460;7.150;2023-11-18T16:15:19;16.60;62.40
2929;DHT22;1474;51.460;7.150;2023-11-18T16:17:49;16.70;62.50
2929;DHT22;1474;51.460;7.150;2023-11-18T16:20:17;16.60;62.40
2929;DHT22;1474;51.460;7.150;2023-11-18T16:22:52;16.60;62.50
2929;DHT22;1474;51.460;7.150;2023-11-18T16:25:25;16.60;62.50
2929;DHT22;1474;51.460;7.150;2023-11-18T16:27:57;16.60;62.50
2929;DHT22;1474;51.460;7.150;2023-11-18T16:30:25;16.60;62.50
2929;DHT22;1474;51.460;7.150;2023-11-18T16:32:55;16.60;62.50
2929;DHT22;1474;51.460;7.150;2023-11-18T16:35:22;16.70;62.60
2929;DHT22;1474;51.460;7.150;2023-11-18T16:37:49;16.60;63.10
2929;DHT22;1474;51.460;7.150;2023-11-18T16:40:16;16.60;62.60
2929;DHT22;1474;51.460;7.150;2023-11-18T16:42:49;16.60;62.60
2929;DHT22;1474;51.460;7.150;2023-11-18T16:45:16;16.60;62.60